createdAt,value
2023-03-21T00:01:01.649Z,52.76
2023-03-21T00:03:28.230Z,52.83
2023-03-21T00:05:56.439Z,52.93
2023-03-21T00:08:25.842Z,52.91
2023-03-21T00:13:37.892Z,52.69
2023-03-21T00:16:17.519Z,52.78
2023-03-21T00:18:49.484Z,52.46
2023-03-21T00:21:43.936Z,52.86
2023-03-21T00:24:06.676Z,53.26
2023-03-21T00:26:33.572Z,53.61
2023-03-21T00:29:00.142Z,53.38
2023-03-21T00:31:26.723Z,52.96
2023-03-21T00:33:53.332Z,53.22
2023-03-21T00:36:21.362Z,53.39
2023-03-21T00:38:47.935Z,53.04
2023-03-21T00:41:25.781Z,53.00
2023-03-21T00:44:01.205Z,52.92
2023-03-21T00:46:36.353Z,53.60
2023-03-21T00:49:09.362Z,53.51
2023-03-21T00:51:37.329Z,53.49
2023-03-21T00:54:04.057Z,53.45
2023-03-21T00:56:30.633Z,53.61
2023-03-21T00:58:57.221Z,53.28
2023-03-21T01:01:23.719Z,53.76
2023-03-21T01:03:50.323Z,53.49
2023-03-21T01:06:18.901Z,53.61
2023-03-21T01:08:52.665Z,53.50
2023-03-21T01:11:22.943Z,53.50
2023-03-21T01:14:21.019Z,53.54
2023-03-21T01:16:37.207Z,53.68
2023-03-21T01:19:06.912Z,53.48
2023-03-21T01:21:34.230Z,53.88
2023-03-21T01:24:02.237Z,54.00
2023-03-21T01:26:28.861Z,54.23
2023-03-21T01:28:55.577Z,53.90
2023-03-21T01:31:22.324Z,53.80
2023-03-21T01:33:49.092Z,53.90
2023-03-21T01:36:21.158Z,54.01
2023-03-21T01:38:49.222Z,54.35
2023-03-21T01:41:22.055Z,54.57
2023-03-21T01:43:49.815Z,54.21
2023-03-21T01:46:47.841Z,54.42
2023-03-21T01:49:22.496Z,54.63
2023-03-21T01:51:56.684Z,54.26
2023-03-21T01:54:28.808Z,55.04
2023-03-21T01:56:59.014Z,55.26
2023-03-21T01:59:31.131Z,54.90
2023-03-21T02:02:02.433Z,55.45
2023-03-21T02:04:29.025Z,55.85
2023-03-21T02:06:59.246Z,56.15
2023-03-21T02:09:30.700Z,56.00
2023-03-21T02:11:59.043Z,55.92
2023-03-21T02:14:29.217Z,55.79
2023-03-21T02:17:04.334Z,56.14
2023-03-21T02:20:17.798Z,56.13
2023-03-21T02:23:02.092Z,55.64
2023-03-21T02:26:03.686Z,55.56
2023-03-21T02:28:36.835Z,56.02
2023-03-21T02:31:25.645Z,56.01
2023-03-21T02:34:29.747Z,56.20
2023-03-21T02:37:04.778Z,56.65
2023-03-21T02:39:41.151Z,59.27
2023-03-21T02:42:11.567Z,58.76
2023-03-21T02:44:42.441Z,58.41
2023-03-21T02:47:13.520Z,58.31
2023-03-21T02:49:47.054Z,58.10
2023-03-21T02:52:35.416Z,57.90
2023-03-21T02:55:08.066Z,57.90
2023-03-21T02:57:42.528Z,57.58
2023-03-21T03:00:16.956Z,57.84
2023-03-21T03:02:44.032Z,57.81
2023-03-21T03:05:21.239Z,58.04
2023-03-21T03:08:09.356Z,57.65
2023-03-21T03:10:52.203Z,57.45
2023-03-21T03:13:38.025Z,57.52
2023-03-21T03:16:17.298Z,57.20
2023-03-21T03:18:50.286Z,57.23
2023-03-21T03:21:23.032Z,57.04
2023-03-21T03:23:55.572Z,57.36
2023-03-21T03:26:26.513Z,57.30
2023-03-21T03:28:56.985Z,57.11
2023-03-21T03:31:27.190Z,57.14
2023-03-21T03:33:58.115Z,56.89
2023-03-21T03:36:32.357Z,57.01
2023-03-21T03:39:03.566Z,57.15
2023-03-21T03:41:50.248Z,57.13
2023-03-21T03:44:17.767Z,57.19
2023-03-21T03:46:51.652Z,57.43
2023-03-21T03:49:22.725Z,57.40
2023-03-21T03:51:54.525Z,57.64
2023-03-21T03:54:26.887Z,57.84
2023-03-21T03:56:54.036Z,57.75
2023-03-21T03:59:21.020Z,57.65
2023-03-21T04:01:47.654Z,57.73
2023-03-21T04:04:14.164Z,57.81
2023-03-21T04:06:40.760Z,57.59
2023-03-21T04:09:18.788Z,57.95
2023-03-21T04:11:48.486Z,58.05
2023-03-21T04:14:15.305Z,58.33
2023-03-21T04:16:41.922Z,58.43
2023-03-21T04:19:08.430Z,58.36
2023-03-21T04:21:35.044Z,58.25
2023-03-21T04:24:01.569Z,58.22
2023-03-21T04:26:28.048Z,58.14
2023-03-21T04:28:55.861Z,58.41
2023-03-21T04:31:25.930Z,57.71
2023-03-21T04:33:52.802Z,57.39
2023-03-21T04:36:19.369Z,57.75
2023-03-21T04:38:45.923Z,57.56
2023-03-21T04:41:12.466Z,57.68
2023-03-21T04:43:39.098Z,57.45
2023-03-21T04:46:07.606Z,57.43
2023-03-21T04:48:34.209Z,57.17
2023-03-21T04:51:00.747Z,57.43
2023-03-21T04:53:27.635Z,57.43
2023-03-21T04:55:55.505Z,57.42
2023-03-21T04:58:22.261Z,57.24
2023-03-21T05:00:48.828Z,57.08
2023-03-21T05:03:16.822Z,58.34
2023-03-21T05:05:43.420Z,57.94
2023-03-21T05:08:09.983Z,57.57
2023-03-21T05:10:36.551Z,57.53
2023-03-21T05:13:03.216Z,57.57
2023-03-21T05:15:29.841Z,57.34
2023-03-21T05:17:57.725Z,57.33
2023-03-21T05:20:25.764Z,57.63
2023-03-21T05:22:52.570Z,57.58
2023-03-21T05:25:19.347Z,57.49
2023-03-21T05:27:45.883Z,57.64
2023-03-21T05:30:14.974Z,57.61
2023-03-21T05:32:41.880Z,57.41
2023-03-21T05:35:09.738Z,57.76
2023-03-21T05:37:38.071Z,57.55
2023-03-21T05:40:05.912Z,57.71
2023-03-21T05:42:32.521Z,57.65
2023-03-21T05:44:59.156Z,57.39
2023-03-21T05:47:25.837Z,57.87
2023-03-21T05:49:52.585Z,57.83
2023-03-21T05:52:19.312Z,57.72
2023-03-21T05:54:47.459Z,58.17
2023-03-21T05:57:14.045Z,58.59
2023-03-21T05:59:40.681Z,58.70
2023-03-21T06:02:07.169Z,58.25
2023-03-21T06:04:33.745Z,58.59
2023-03-21T06:07:00.333Z,58.53
2023-03-21T06:09:26.987Z,58.28
2023-03-21T06:11:56.741Z,58.46
2023-03-21T06:15:01.452Z,59.16
2023-03-21T06:21:14.844Z,60.07
2023-03-21T06:23:41.511Z,59.92
2023-03-21T06:29:41.055Z,60.14
2023-03-21T06:32:17.072Z,60.32
2023-03-21T06:34:43.796Z,60.25
2023-03-21T06:37:10.600Z,60.14
2023-03-21T06:39:37.151Z,60.28
2023-03-21T06:42:03.948Z,59.99
2023-03-21T06:44:30.563Z,60.10
2023-03-21T06:46:58.558Z,60.13
2023-03-21T06:49:25.608Z,59.44
2023-03-21T06:52:20.239Z,59.56
2023-03-21T06:54:46.803Z,59.97
2023-03-21T06:57:13.682Z,59.75
2023-03-21T06:59:40.309Z,59.55
2023-03-21T07:02:10.434Z,59.39
2023-03-21T07:04:37.108Z,59.99
2023-03-21T07:07:03.756Z,59.87
2023-03-21T07:09:30.343Z,60.40
2023-03-21T07:11:56.979Z,59.66
2023-03-21T07:14:23.868Z,59.57
2023-03-21T07:16:50.603Z,59.49
2023-03-21T07:19:18.615Z,59.17
2023-03-21T07:21:45.259Z,59.27
2023-03-21T07:24:12.031Z,59.49
2023-03-21T07:26:38.632Z,59.55
2023-03-21T07:29:05.469Z,60.65
2023-03-21T07:31:32.075Z,60.33
2023-03-21T07:33:58.708Z,60.58
2023-03-21T07:36:26.809Z,60.27
2023-03-21T07:38:53.253Z,60.46
2023-03-21T07:41:19.833Z,60.95
2023-03-21T07:43:46.409Z,61.22
2023-03-21T07:46:13.545Z,61.42
2023-03-21T07:48:40.104Z,62.03
2023-03-21T07:51:07.344Z,63.54
2023-03-21T07:53:35.343Z,62.88
2023-03-21T07:56:01.984Z,61.70
2023-03-21T07:58:28.608Z,61.44
2023-03-21T08:00:55.700Z,61.20
2023-03-21T08:03:22.573Z,61.78
2023-03-21T08:05:49.372Z,62.45
2023-03-21T08:08:15.973Z,61.50
2023-03-21T08:10:44.079Z,61.89
2023-03-21T08:13:10.729Z,63.05
2023-03-21T08:15:37.542Z,63.24
2023-03-21T08:18:04.404Z,63.12
2023-03-21T08:20:31.171Z,62.58
2023-03-21T08:22:57.790Z,63.02
2023-03-21T08:25:24.440Z,62.94
2023-03-21T08:27:52.497Z,63.64
2023-03-21T08:30:22.267Z,62.75
2023-03-21T08:32:49.369Z,63.62
2023-03-21T08:35:18.909Z,63.63
2023-03-21T08:37:45.485Z,63.62
2023-03-21T08:40:13.892Z,63.70
2023-03-21T08:42:41.823Z,63.72
2023-03-21T08:45:10.966Z,64.21
2023-03-21T08:47:37.919Z,63.40
2023-03-21T08:50:06.838Z,63.19
2023-03-21T08:52:33.909Z,64.45
2023-03-21T08:55:00.946Z,63.44
2023-03-21T08:57:27.678Z,63.24
2023-03-21T08:59:54.501Z,63.14
2023-03-21T09:02:22.625Z,63.07
2023-03-21T09:04:49.311Z,62.56
2023-03-21T09:07:15.939Z,62.87
2023-03-21T09:09:42.720Z,63.42
2023-03-21T09:12:09.789Z,62.84
2023-03-21T09:14:36.362Z,63.25
2023-03-21T09:17:03.016Z,63.44
2023-03-21T09:19:30.940Z,62.44
2023-03-21T09:21:57.551Z,61.91
2023-03-21T09:24:24.320Z,62.29
2023-03-21T09:26:50.988Z,62.53
2023-03-21T09:29:17.852Z,61.15
2023-03-21T09:31:44.501Z,61.45
2023-03-21T09:34:11.208Z,62.04
2023-03-21T09:36:39.155Z,62.25
2023-03-21T09:39:05.748Z,62.09
2023-03-21T09:41:48.965Z,62.55
2023-03-21T09:44:38.752Z,62.56
2023-03-21T09:47:14.820Z,62.08
2023-03-21T09:49:45.316Z,62.02
2023-03-21T09:52:20.621Z,60.88
2023-03-21T09:54:47.146Z,61.14
2023-03-21T09:57:25.607Z,60.74
2023-03-21T09:59:54.119Z,60.57
2023-03-21T10:02:33.732Z,61.66
2023-03-21T10:05:00.727Z,62.20
2023-03-21T10:07:34.779Z,62.27
2023-03-21T10:10:03.159Z,62.43
2023-03-21T10:12:30.098Z,61.93
2023-03-21T10:15:00.621Z,63.22
2023-03-21T10:17:32.675Z,62.63
2023-03-21T10:20:12.685Z,62.67
2023-03-21T10:22:40.954Z,61.35
2023-03-21T10:25:13.546Z,60.73
2023-03-21T10:27:40.486Z,59.74
2023-03-21T10:30:14.205Z,59.58
2023-03-21T10:32:40.910Z,60.15
2023-03-21T10:35:14.032Z,60.13
2023-03-21T10:37:42.168Z,60.05
2023-03-21T10:40:15.814Z,60.95
2023-03-21T10:42:42.848Z,61.67
2023-03-21T10:45:16.212Z,60.68
2023-03-21T10:47:43.143Z,59.32
2023-03-21T10:50:14.761Z,59.25
2023-03-21T10:52:48.102Z,59.29
2023-03-21T10:55:25.153Z,58.38
2023-03-21T10:57:59.472Z,57.45
2023-03-21T11:00:29.344Z,58.02
2023-03-21T11:02:57.396Z,57.80
2023-03-21T11:05:26.872Z,57.74
2023-03-21T11:08:00.329Z,58.00
2023-03-21T11:10:29.743Z,57.98
2023-03-21T11:12:57.830Z,57.27
2023-03-21T11:15:30.210Z,56.97
2023-03-21T11:17:57.106Z,56.04
2023-03-21T11:20:23.741Z,55.88
2023-03-21T11:22:54.986Z,55.85
2023-03-21T11:25:27.732Z,55.07
2023-03-21T11:27:55.334Z,55.57
2023-03-21T11:30:24.346Z,56.20
2023-03-21T11:32:53.990Z,55.86
2023-03-21T11:35:23.528Z,56.10
2023-03-21T11:37:52.609Z,55.44
2023-03-21T11:40:22.008Z,54.91
2023-03-21T11:42:51.745Z,54.58
2023-03-21T11:45:20.082Z,54.30
2023-03-21T11:47:47.668Z,53.29
2023-03-21T11:50:19.766Z,53.86
2023-03-21T11:52:58.568Z,53.94
2023-03-21T11:55:36.495Z,54.44
2023-03-21T11:58:21.843Z,53.60
2023-03-21T12:00:53.920Z,55.40
2023-03-21T12:03:54.917Z,55.38
2023-03-21T12:06:31.903Z,55.58
2023-03-21T12:09:11.980Z,55.51
2023-03-21T12:11:52.185Z,56.87
2023-03-21T12:14:28.049Z,56.80
2023-03-21T12:17:21.666Z,57.86
2023-03-21T12:20:14.201Z,57.51
2023-03-21T12:22:47.073Z,57.45
2023-03-21T12:25:17.553Z,58.34
2023-03-21T12:27:52.801Z,57.50
2023-03-21T12:30:33.295Z,59.05
2023-03-21T12:33:23.333Z,59.20
2023-03-21T12:36:10.226Z,59.67
2023-03-21T12:49:13.812Z,61.46
2023-03-21T12:51:43.842Z,61.01
2023-03-21T12:54:21.169Z,61.17
2023-03-21T12:56:56.054Z,59.90
2023-03-21T12:59:33.556Z,59.52
2023-03-21T13:05:29.360Z,57.92
2023-03-21T13:14:19.850Z,57.56
2023-03-21T13:17:01.419Z,58.40
2023-03-21T13:19:48.604Z,58.92
2023-03-21T13:22:33.290Z,58.71
2023-03-21T13:25:33.989Z,59.84
2023-03-21T13:28:19.100Z,59.04
2023-03-21T13:34:29.299Z,59.55
2023-03-21T13:37:18.356Z,58.65
2023-03-21T13:39:47.066Z,58.20
2023-03-21T13:42:22.086Z,58.23
2023-03-21T13:44:52.400Z,57.80
2023-03-21T13:47:39.935Z,57.88
2023-03-21T13:50:22.268Z,57.29
2023-03-21T13:53:11.404Z,57.98
2023-03-21T13:55:43.186Z,56.15
2023-03-21T13:58:43.121Z,55.85
2023-03-21T14:01:30.725Z,54.86
2023-03-21T14:04:01.014Z,55.50
2023-03-21T14:07:05.997Z,54.78
2023-03-21T14:10:11.357Z,55.64
2023-03-21T14:12:43.592Z,54.93
2023-03-21T14:15:27.561Z,54.48
2023-03-21T14:18:00.227Z,54.21
2023-03-21T14:20:30.996Z,54.01
2023-03-21T14:23:04.191Z,55.03
2023-03-21T14:25:47.006Z,54.84
2023-03-21T14:28:18.788Z,55.46
2023-03-21T14:30:46.316Z,54.48
2023-03-21T14:33:18.459Z,54.91
2023-03-21T14:35:47.112Z,54.20
2023-03-21T14:38:20.445Z,53.96
2023-03-21T14:40:48.473Z,53.10
2023-03-21T14:43:16.415Z,52.88
2023-03-21T14:45:43.035Z,53.36
2023-03-21T14:48:13.394Z,53.06
2023-03-21T14:50:45.400Z,52.25
2023-03-21T14:53:15.393Z,53.00
2023-03-21T14:55:44.068Z,53.89
2023-03-21T14:58:15.157Z,53.51
2023-03-21T15:00:43.488Z,53.87
2023-03-21T15:03:12.634Z,53.84
2023-03-21T15:05:42.195Z,53.67
2023-03-21T15:08:14.628Z,52.65
2023-03-21T15:10:42.289Z,53.09
2023-03-21T15:13:15.161Z,54.25
2023-03-21T15:15:44.027Z,53.48
2023-03-21T15:18:15.692Z,53.53
2023-03-21T15:20:42.672Z,54.66
2023-03-21T15:23:14.425Z,53.87
2023-03-21T15:25:42.154Z,53.84
2023-03-21T15:28:13.598Z,53.17
2023-03-21T15:30:49.632Z,54.48
2023-03-21T15:33:17.129Z,54.13
2023-03-21T15:35:46.339Z,54.00
2023-03-21T15:38:23.789Z,55.59
2023-03-21T15:40:50.338Z,55.46
2023-03-21T15:43:18.525Z,55.40
2023-03-21T15:45:50.905Z,55.30
2023-03-21T15:48:22.051Z,54.31
2023-03-21T15:50:55.599Z,54.30
2023-03-21T15:53:24.030Z,53.62
2023-03-21T15:55:53.131Z,53.90
2023-03-21T15:58:22.422Z,54.25
2023-03-21T16:00:55.289Z,54.71
2023-03-21T16:03:25.831Z,55.21
2023-03-21T16:06:10.706Z,55.40
2023-03-21T16:08:43.042Z,55.18
2023-03-21T16:11:16.881Z,56.26
2023-03-21T16:13:43.705Z,56.74
2023-03-21T16:16:16.794Z,56.56
2023-03-21T16:18:51.178Z,56.71
2023-03-21T16:21:22.508Z,56.70
2023-03-21T16:23:49.401Z,56.42
2023-03-21T16:26:18.790Z,56.15
2023-03-21T16:28:46.030Z,56.67
2023-03-21T16:31:23.607Z,56.67
2023-03-21T16:33:51.253Z,55.96
2023-03-21T16:36:39.245Z,56.19
2023-03-21T16:39:15.856Z,56.43
2023-03-21T16:41:42.488Z,55.99
2023-03-21T16:44:09.106Z,56.14
2023-03-21T16:46:37.444Z,56.14
2023-03-21T16:49:04.444Z,56.67
2023-03-21T16:51:33.215Z,57.15
2023-03-21T16:53:59.951Z,56.61
2023-03-21T16:56:29.727Z,57.56
2023-03-21T16:58:57.563Z,56.81
2023-03-21T17:01:25.224Z,57.20
2023-03-21T17:03:53.876Z,57.42
2023-03-21T17:06:22.170Z,57.48
2023-03-21T17:08:49.071Z,56.92
2023-03-21T17:11:18.039Z,57.72
2023-03-21T17:13:44.628Z,57.00
2023-03-21T17:16:12.630Z,57.33
2023-03-21T17:18:39.416Z,56.96
2023-03-21T17:21:12.806Z,56.97
2023-03-21T17:23:39.418Z,57.45
2023-03-21T17:26:06.254Z,57.27
2023-03-21T17:28:32.923Z,57.07
2023-03-21T17:30:59.475Z,57.45
2023-03-21T17:33:26.013Z,57.11
2023-03-21T17:35:52.648Z,57.28
2023-03-21T17:38:20.659Z,57.20
2023-03-21T17:40:49.523Z,57.01
2023-03-21T17:43:18.973Z,57.51
2023-03-21T17:45:45.575Z,56.81
2023-03-21T17:48:12.154Z,57.57
2023-03-21T17:50:39.347Z,57.93
2023-03-21T17:53:06.969Z,57.63
2023-03-21T17:55:35.393Z,58.05
2023-03-21T17:58:02.308Z,59.23
2023-03-21T18:00:30.410Z,58.63
2023-03-21T18:02:57.223Z,58.27
2023-03-21T18:05:25.522Z,58.38
2023-03-21T18:10:41.959Z,58.10
2023-03-21T18:13:08.893Z,58.53
2023-03-21T18:15:38.007Z,58.63
2023-03-21T18:18:08.893Z,59.10
2023-03-21T18:20:51.129Z,58.93
2023-03-21T18:23:18.619Z,59.12
2023-03-21T18:25:47.115Z,59.23
2023-03-21T18:28:14.100Z,59.07
2023-03-21T18:31:00.759Z,58.32
2023-03-21T18:33:34.961Z,59.00
2023-03-21T18:36:28.624Z,59.01
2023-03-21T18:38:55.972Z,59.30
2023-03-21T18:41:24.194Z,58.85
2023-03-21T18:44:15.444Z,58.14
2023-03-21T18:46:40.169Z,58.21
2023-03-21T18:49:42.182Z,58.47
2023-03-21T18:52:13.657Z,58.90
2023-03-21T18:55:05.327Z,58.95
2023-03-21T19:04:39.299Z,58.07
2023-03-21T19:18:54.483Z,58.14
2023-03-21T19:21:25.077Z,58.63
2023-03-21T19:24:26.507Z,58.68
2023-03-21T19:29:37.989Z,57.82
2023-03-21T19:32:05.602Z,57.99
2023-03-21T19:34:39.026Z,58.17
2023-03-21T19:37:06.041Z,57.60
2023-03-21T19:39:32.833Z,57.76
2023-03-21T19:42:15.156Z,57.61
2023-03-21T19:44:42.937Z,57.76
2023-03-21T19:47:10.293Z,57.38
2023-03-21T19:50:29.596Z,57.04
2023-03-21T19:52:29.796Z,56.92
2023-03-21T19:55:09.954Z,57.01
2023-03-21T19:57:36.984Z,56.93
2023-03-21T20:00:09.248Z,57.55
2023-03-21T20:02:39.657Z,56.96
2023-03-21T20:05:11.300Z,57.23
2023-03-21T20:10:21.844Z,57.47
2023-03-21T20:12:52.776Z,57.17
2023-03-21T20:15:21.830Z,57.46
2023-03-21T20:17:52.001Z,57.50
2023-03-21T20:20:20.491Z,56.93
2023-03-21T20:25:41.681Z,56.83
2023-03-21T20:28:24.316Z,57.44
2023-03-21T20:30:55.601Z,57.04
2023-03-21T20:33:22.430Z,57.46
2023-03-21T20:38:42.103Z,57.95
2023-03-21T20:41:09.003Z,58.26
2023-03-21T20:46:31.676Z,58.75
2023-03-21T20:48:58.386Z,58.61
2023-03-21T20:54:16.055Z,58.64
2023-03-21T20:56:43.015Z,58.64
2023-03-21T20:59:20.797Z,59.07
2023-03-21T21:01:52.838Z,58.86
2023-03-21T21:04:19.574Z,58.62
2023-03-21T21:06:47.926Z,58.67
2023-03-21T21:09:14.915Z,58.76
2023-03-21T21:12:06.501Z,58.41
2023-03-21T21:14:28.588Z,59.08
2023-03-21T21:16:55.708Z,58.94
2023-03-21T21:19:23.100Z,59.13
2023-03-21T21:21:56.309Z,59.20
2023-03-21T21:24:29.904Z,58.78
2023-03-21T21:26:59.004Z,59.20
2023-03-21T21:29:25.944Z,58.51
2023-03-21T21:31:52.766Z,59.11
2023-03-21T21:34:19.646Z,58.89
2023-03-21T21:36:46.695Z,58.22
2023-03-21T21:39:18.893Z,58.65
2023-03-21T21:41:45.540Z,58.92
2023-03-21T21:44:12.194Z,59.31
2023-03-21T21:46:39.732Z,59.54
2023-03-21T21:49:10.078Z,59.71
2023-03-21T21:51:37.025Z,59.49
2023-03-21T21:54:06.123Z,59.51
2023-03-21T21:56:38.230Z,59.12
2023-03-21T21:59:16.845Z,59.00
2023-03-21T22:01:43.996Z,58.93
2023-03-21T22:04:10.954Z,59.48
2023-03-21T22:06:48.426Z,58.66
2023-03-21T22:09:15.110Z,58.31
2023-03-21T22:12:02.621Z,57.93
2023-03-21T22:14:29.524Z,58.38
2023-03-21T22:17:18.173Z,58.24
2023-03-21T22:20:14.313Z,58.07
2023-03-21T22:22:41.737Z,58.49
2023-03-21T22:25:11.646Z,58.19
2023-03-21T22:27:48.485Z,57.67
2023-03-21T22:30:22.843Z,57.63
2023-03-21T22:33:08.855Z,57.65
2023-03-21T22:35:36.743Z,57.64
2023-03-21T22:38:09.542Z,57.83
2023-03-21T22:40:39.800Z,58.24
2023-03-21T22:43:08.101Z,58.26
2023-03-21T22:45:34.887Z,57.71
2023-03-21T22:48:12.883Z,57.57
2023-03-21T22:50:41.146Z,58.22
2023-03-21T22:53:08.247Z,57.72
2023-03-21T22:55:41.828Z,57.91
2023-03-21T22:58:10.049Z,57.74
2023-03-21T23:00:55.868Z,58.14
2023-03-21T23:03:47.068Z,58.00
2023-03-21T23:06:20.911Z,58.15
2023-03-21T23:08:47.623Z,57.99
2023-03-21T23:11:17.648Z,58.13
2023-03-21T23:13:45.802Z,57.59
2023-03-21T23:16:12.605Z,57.89
2023-03-21T23:18:39.435Z,58.72
2023-03-21T23:21:06.828Z,58.22
2023-03-21T23:23:34.115Z,58.07
2023-03-21T23:26:00.933Z,57.67
2023-03-21T23:28:48.033Z,57.44
2023-03-21T23:31:30.311Z,58.05
2023-03-21T23:33:59.242Z,57.85
2023-03-21T23:36:39.414Z,57.67
2023-03-21T23:39:17.658Z,58.02
2023-03-21T23:41:44.456Z,58.17
2023-03-21T23:47:08.591Z,58.92
2023-03-21T23:49:38.283Z,58.67
2023-03-21T23:52:34.321Z,59.27
